sensor_id;sensor_type;location;lat;lon;timestamp;pressure;altitude;pressure_sealevel;temperature;humidity
18790;BME280;9523;42.650;23.386;2022-07-15T00:01:11;94699.19;;;17.30;66.07
18790;BME280;9523;42.650;23.386;2022-07-15T00:03:38;94700.88;;;17.34;65.51
18790;BME280;9523;42.650;23.386;2022-07-15T00:06:05;94703.38;;;17.40;65.50
18790;BME280;9523;42.650;23.386;2022-07-15T00:08:34;94699.13;;;17.38;65.13
18790;BME280;9523;42.650;23.386;2022-07-15T00:11:02;94697.13;;;17.35;66.35
18790;BME280;9523;42.650;23.386;2022-07-15T00:13:28;94697.63;;;17.29;65.98
18790;BME280;9523;42.650;23.386;2022-07-15T00:15:56;94700.97;;;17.26;66.49
18790;BME280;9523;42.650;23.386;2022-07-15T00:18:23;94697.72;;;17.20;67.20
18790;BME280;9523;42.650;23.386;2022-07-15T00:20:50;94703.88;;;17.12;69.00
18790;BME280;9523;42.650;23.386;2022-07-15T00:23:16;94638.13;;;16.63;69.57
18790;BME280;9523;42.650;23.386;2022-07-15T00:25:45;94700.66;;;17.07;69.13
18790;BME280;9523;42.650;23.386;2022-07-15T00:28:11;94710.28;;;16.99;70.69
18790;BME280;9523;42.650;23.386;2022-07-15T00:30:40;94703.38;;;16.98;70.46
18790;BME280;9523;42.650;23.386;2022-07-15T00:33:07;94706.22;;;16.93;70.91
18790;BME280;9523;42.650;23.386;2022-07-15T00:35:36;94705.97;;;16.86;69.94
18790;BME280;9523;42.650;23.386;2022-07-15T00:38:04;94705.06;;;16.82;68.99
18790;BME280;9523;42.650;23.386;2022-07-15T00:40:31;94711.84;;;16.79;70.39
18790;BME280;9523;42.650;23.386;2022-07-15T00:43:06;94670.91;;;16.55;69.74
18790;BME280;9523;42.650;23.386;2022-07-15T00:45:33;94699.47;;;16.75;69.35
18790;BME280;9523;42.650;23.386;2022-07-15T00:48:00;94702.72;;;16.80;68.33
18790;BME280;9523;42.650;23.386;2022-07-15T00:50:28;94694.81;;;16.72;69.25
18790;BME280;9523;42.650;23.386;2022-07-15T00:52:58;94684.59;;;16.74;68.40
18790;BME280;9523;42.650;23.386;2022-07-15T00:55:27;94622.81;;;16.30;68.11
18790;BME280;9523;42.650;23.386;2022-07-15T00:58:00;94689.84;;;16.82;70.73
18790;BME280;9523;42.650;23.386;2022-07-15T01:00:29;94685.06;;;16.76;71.61
18790;BME280;9523;42.650;23.386;2022-07-15T01:02:58;94678.47;;;16.73;71.56
18790;BME280;9523;42.650;23.386;2022-07-15T01:05:26;94677.13;;;16.67;71.68
18790;BME280;9523;42.650;23.386;2022-07-15T01:07:53;94673.72;;;16.58;72.55
18790;BME280;9523;42.650;23.386;2022-07-15T01:10:22;94683.28;;;16.59;72.58
18790;BME280;9523;42.650;23.386;2022-07-15T01:12:51;94684.44;;;16.41;73.73
18790;BME280;9523;42.650;23.386;2022-07-15T01:15:18;94674.91;;;16.40;72.78
18790;BME280;9523;42.650;23.386;2022-07-15T01:17:46;94667.94;;;16.27;73.98
18790;BME280;9523;42.650;23.386;2022-07-15T01:20:14;94676.38;;;16.29;74.32
18790;BME280;9523;42.650;23.386;2022-07-15T01:22:43;94663.09;;;16.20;72.68
18790;BME280;9523;42.650;23.386;2022-07-15T01:25:10;94676.88;;;16.22;72.66
18790;BME280;9523;42.650;23.386;2022-07-15T01:27:36;94672.78;;;16.25;72.61
18790;BME280;9523;42.650;23.386;2022-07-15T01:30:04;94676.22;;;16.25;72.54
18790;BME280;9523;42.650;23.386;2022-07-15T01:32:31;94672.47;;;16.26;71.97
18790;BME280;9523;42.650;23.386;2022-07-15T01:34:58;94664.00;;;16.24;72.37
18790;BME280;9523;42.650;23.386;2022-07-15T01:37:25;94663.09;;;16.20;72.44
18790;BME280;9523;42.650;23.386;2022-07-15T01:39:54;94668.59;;;16.24;71.87
18790;BME280;9523;42.650;23.386;2022-07-15T01:42:20;94660.78;;;16.19;72.76
18790;BME280;9523;42.650;23.386;2022-07-15T01:44:47;94634.56;;;16.00;72.75
18790;BME280;9523;42.650;23.386;2022-07-15T01:47:14;94662.38;;;16.11;74.26
18790;BME280;9523;42.650;23.386;2022-07-15T01:49:41;94669.44;;;16.07;75.58
18790;BME280;9523;42.650;23.386;2022-07-15T01:52:08;94658.56;;;15.91;75.16
18790;BME280;9523;42.650;23.386;2022-07-15T01:54:35;94666.53;;;15.91;76.29
18790;BME280;9523;42.650;23.386;2022-07-15T01:57:04;94669.72;;;15.76;75.59
18790;BME280;9523;42.650;23.386;2022-07-15T01:59:31;94670.81;;;15.75;77.10
18790;BME280;9523;42.650;23.386;2022-07-15T02:01:58;94668.97;;;15.59;76.81
18790;BME280;9523;42.650;23.386;2022-07-15T02:04:25;94679.13;;;15.65;78.24
18790;BME280;9523;42.650;23.386;2022-07-15T02:06:52;94666.31;;;15.59;77.42
18790;BME280;9523;42.650;23.386;2022-07-15T02:09:19;94673.81;;;15.65;77.72
18790;BME280;9523;42.650;23.386;2022-07-15T02:11:46;94680.69;;;15.66;77.40
18790;BME280;9523;42.650;23.386;2022-07-15T02:14:14;94678.66;;;15.72;76.42
18790;BME280;9523;42.650;23.386;2022-07-15T02:16:41;94678.00;;;15.75;76.00
18790;BME280;9523;42.650;23.386;2022-07-15T02:19:10;94681.91;;;15.77;75.77
18790;BME280;9523;42.650;23.386;2022-07-15T02:21:37;94678.28;;;15.82;75.75
18790;BME280;9523;42.650;23.386;2022-07-15T02:24:04;94682.38;;;15.79;75.80
18790;BME280;9523;42.650;23.386;2022-07-15T02:26:31;94683.34;;;15.75;77.14
18790;BME280;9523;42.650;23.386;2022-07-15T02:28:58;94680.06;;;15.69;77.35
18790;BME280;9523;42.650;23.386;2022-07-15T02:31:27;94684.31;;;15.62;78.45
18790;BME280;9523;42.650;23.386;2022-07-15T02:33:53;94685.72;;;15.59;79.20
18790;BME280;9523;42.650;23.386;2022-07-15T02:36:20;94680.69;;;15.49;79.78
18790;BME280;9523;42.650;23.386;2022-07-15T02:38:47;94681.34;;;15.46;80.53
18790;BME280;9523;42.650;23.386;2022-07-15T02:41:14;94688.88;;;15.53;80.84
18790;BME280;9523;42.650;23.386;2022-07-15T02:43:41;94679.63;;;15.50;81.62
18790;BME280;9523;42.650;23.386;2022-07-15T02:46:11;94667.91;;;15.34;82.14
18790;BME280;9523;42.650;23.386;2022-07-15T02:48:39;94676.03;;;15.37;82.85
18790;BME280;9523;42.650;23.386;2022-07-15T02:51:07;94674.00;;;15.34;83.21
18790;BME280;9523;42.650;23.386;2022-07-15T02:53:34;94669.34;;;15.23;84.40
18790;BME280;9523;42.650;23.386;2022-07-15T02:56:01;94674.81;;;15.26;85.19
18790;BME280;9523;42.650;23.386;2022-07-15T02:58:29;94672.47;;;15.16;86.77
18790;BME280;9523;42.650;23.386;2022-07-15T03:00:57;94672.34;;;15.13;87.51
18790;BME280;9523;42.650;23.386;2022-07-15T03:03:24;94669.03;;;15.07;88.64
18790;BME280;9523;42.650;23.386;2022-07-15T03:05:55;94675.44;;;15.06;89.35
18790;BME280;9523;42.650;23.386;2022-07-15T03:08:22;94672.50;;;15.08;89.13
18790;BME280;9523;42.650;23.386;2022-07-15T03:10:50;94668.41;;;15.01;89.64
18790;BME280;9523;42.650;23.386;2022-07-15T03:13:17;94679.03;;;15.01;90.55
18790;BME280;9523;42.650;23.386;2022-07-15T03:15:44;94677.50;;;15.00;89.74
18790;BME280;9523;42.650;23.386;2022-07-15T03:18:11;94673.41;;;15.03;89.56
18790;BME280;9523;42.650;23.386;2022-07-15T03:20:37;94676.38;;;15.01;90.12
18790;BME280;9523;42.650;23.386;2022-07-15T03:23:06;94671.84;;;15.02;90.02
18790;BME280;9523;42.650;23.386;2022-07-15T03:25:33;94665.31;;;14.99;90.44
18790;BME280;9523;42.650;23.386;2022-07-15T03:27:59;94664.22;;;15.00;90.90
18790;BME280;9523;42.650;23.386;2022-07-15T03:30:29;94661.22;;;15.02;90.59
18790;BME280;9523;42.650;23.386;2022-07-15T03:32:56;94649.97;;;15.05;90.23
18790;BME280;9523;42.650;23.386;2022-07-15T03:35:23;94655.59;;;15.12;91.23
18790;BME280;9523;42.650;23.386;2022-07-15T03:37:50;94667.31;;;15.20;91.19
18790;BME280;9523;42.650;23.386;2022-07-15T03:40:19;94664.16;;;15.26;91.79
18790;BME280;9523;42.650;23.386;2022-07-15T03:42:46;94659.78;;;15.30;90.89
18790;BME280;9523;42.650;23.386;2022-07-15T03:45:13;94610.44;;;15.03;90.20
18790;BME280;9523;42.650;23.386;2022-07-15T03:47:40;94661.19;;;15.36;89.87
18790;BME280;9523;42.650;23.386;2022-07-15T03:50:07;94666.81;;;15.43;88.75
18790;BME280;9523;42.650;23.386;2022-07-15T03:52:34;94635.69;;;15.35;87.31
18790;BME280;9523;42.650;23.386;2022-07-15T03:55:01;94670.72;;;15.55;86.94
18790;BME280;9523;42.650;23.386;2022-07-15T03:57:29;94672.88;;;15.61;86.60
18790;BME280;9523;42.650;23.386;2022-07-15T03:59:56;94671.50;;;15.55;86.60
18790;BME280;9523;42.650;23.386;2022-07-15T04:02:23;94678.50;;;15.68;85.47
18790;BME280;9523;42.650;23.386;2022-07-15T04:04:50;94656.59;;;15.71;84.89
18790;BME280;9523;42.650;23.386;2022-07-15T04:07:17;94673.13;;;15.77;84.22
18790;BME280;9523;42.650;23.386;2022-07-15T04:09:44;94667.50;;;15.87;83.76
18790;BME280;9523;42.650;23.386;2022-07-15T04:12:11;94650.28;;;15.84;82.71
18790;BME280;9523;42.650;23.386;2022-07-15T04:14:39;94679.47;;;16.02;82.00
18790;BME280;9523;42.650;23.386;2022-07-15T04:17:06;94669.63;;;15.93;82.23
18790;BME280;9523;42.650;23.386;2022-07-15T04:19:33;94663.25;;;15.86;83.42
18790;BME280;9523;42.650;23.386;2022-07-15T04:21:59;94685.13;;;16.00;82.95
18790;BME280;9523;42.650;23.386;2022-07-15T04:24:27;94670.41;;;16.03;82.53
18790;BME280;9523;42.650;23.386;2022-07-15T04:26:54;94673.03;;;16.11;82.83
18790;BME280;9523;42.650;23.386;2022-07-15T04:29:21;94683.31;;;16.13;82.74
18790;BME280;9523;42.650;23.386;2022-07-15T04:31:49;94644.75;;;15.98;84.04
18790;BME280;9523;42.650;23.386;2022-07-15T04:34:16;94676.56;;;16.24;83.29
18790;BME280;9523;42.650;23.386;2022-07-15T04:36:43;94682.47;;;16.29;83.13
18790;BME280;9523;42.650;23.386;2022-07-15T04:39:10;94680.91;;;16.28;83.71
18790;BME280;9523;42.650;23.386;2022-07-15T04:41:37;94685.34;;;16.45;82.92
18790;BME280;9523;42.650;23.386;2022-07-15T04:44:04;94682.38;;;16.47;82.75
18790;BME280;9523;42.650;23.386;2022-07-15T04:46:31;94685.50;;;16.49;82.07
18790;BME280;9523;42.650;23.386;2022-07-15T04:48:59;94688.13;;;16.57;82.87
18790;BME280;9523;42.650;23.386;2022-07-15T04:51:44;94690.16;;;16.60;85.44
18790;BME280;9523;42.650;23.386;2022-07-15T04:54:12;94677.63;;;16.61;84.78
18790;BME280;9523;42.650;23.386;2022-07-15T04:56:39;94676.28;;;16.75;85.10
18790;BME280;9523;42.650;23.386;2022-07-15T04:59:06;94685.06;;;16.76;84.09
18790;BME280;9523;42.650;23.386;2022-07-15T05:01:33;94679.19;;;16.82;83.77
18790;BME280;9523;42.650;23.386;2022-07-15T05:04:01;94686.47;;;16.94;83.06
18790;BME280;9523;42.650;23.386;2022-07-15T05:06:28;94698.31;;;17.05;82.54
18790;BME280;9523;42.650;23.386;2022-07-15T05:08:55;94694.53;;;17.06;81.47
18790;BME280;9523;42.650;23.386;2022-07-15T05:11:22;94695.19;;;17.03;81.62
18790;BME280;9523;42.650;23.386;2022-07-15T05:13:49;94689.47;;;17.13;80.79
18790;BME280;9523;42.650;23.386;2022-07-15T05:16:15;94694.13;;;17.16;82.47
18790;BME280;9523;42.650;23.386;2022-07-15T05:18:43;94689.16;;;17.15;81.83
18790;BME280;9523;42.650;23.386;2022-07-15T05:21:12;94683.81;;;17.15;83.43
18790;BME280;9523;42.650;23.386;2022-07-15T05:23:38;94688.41;;;17.26;82.56
18790;BME280;9523;42.650;23.386;2022-07-15T05:26:06;94691.63;;;17.32;83.26
18790;BME280;9523;42.650;23.386;2022-07-15T05:28:33;94701.34;;;17.36;83.94
18790;BME280;9523;42.650;23.386;2022-07-15T05:31:00;94681.31;;;17.30;81.69
18790;BME280;9523;42.650;23.386;2022-07-15T05:33:27;94682.66;;;17.36;80.91
18790;BME280;9523;42.650;23.386;2022-07-15T05:35:54;94685.13;;;17.42;81.27
18790;BME280;9523;42.650;23.386;2022-07-15T05:38:22;94686.47;;;17.48;82.10
18790;BME280;9523;42.650;23.386;2022-07-15T05:40:50;94676.69;;;17.52;79.68
18790;BME280;9523;42.650;23.386;2022-07-15T05:43:16;94684.50;;;17.57;81.31
18790;BME280;9523;42.650;23.386;2022-07-15T05:45:43;94687.44;;;17.64;78.58
18790;BME280;9523;42.650;23.386;2022-07-15T05:48:11;94690.03;;;17.72;78.70
18790;BME280;9523;42.650;23.386;2022-07-15T05:50:38;94680.25;;;17.76;78.88
18790;BME280;9523;42.650;23.386;2022-07-15T05:53:05;94688.50;;;17.96;78.24
18790;BME280;9523;42.650;23.386;2022-07-15T05:55:33;94675.31;;;17.99;75.33
18790;BME280;9523;42.650;23.386;2022-07-15T05:58:00;94687.09;;;18.22;74.96
18790;BME280;9523;42.650;23.386;2022-07-15T06:00:31;94695.13;;;18.35;73.64
18790;BME280;9523;42.650;23.386;2022-07-15T06:02:58;94675.53;;;18.43;72.54
18790;BME280;9523;42.650;23.386;2022-07-15T06:05:25;94673.63;;;18.55;71.39
18790;BME280;9523;42.650;23.386;2022-07-15T06:07:52;94678.97;;;18.67;70.57
18790;BME280;9523;42.650;23.386;2022-07-15T06:10:19;94678.06;;;18.75;71.17
18790;BME280;9523;42.650;23.386;2022-07-15T06:12:48;94677.72;;;18.77;71.57
18790;BME280;9523;42.650;23.386;2022-07-15T06:15:15;94678.38;;;18.86;71.37
18790;BME280;9523;42.650;23.386;2022-07-15T06:17:42;94679.28;;;18.90;72.43
18790;BME280;9523;42.650;23.386;2022-07-15T06:20:09;94675.00;;;19.01;71.61
18790;BME280;9523;42.650;23.386;2022-07-15T06:22:37;94684.75;;;19.21;70.61
18790;BME280;9523;42.650;23.386;2022-07-15T06:25:05;94690.34;;;19.72;76.21
18790;BME280;9523;42.650;23.386;2022-07-15T06:27:32;94684.81;;;19.65;66.41
18790;BME280;9523;42.650;23.386;2022-07-15T06:30:01;94677.56;;;19.65;67.68
18790;BME280;9523;42.650;23.386;2022-07-15T06:32:28;94685.59;;;19.65;64.90
18790;BME280;9523;42.650;23.386;2022-07-15T06:34:55;94670.56;;;19.61;64.94
18790;BME280;9523;42.650;23.386;2022-07-15T06:37:22;94685.22;;;19.67;65.31
18790;BME280;9523;42.650;23.386;2022-07-15T06:39:49;94681.19;;;19.73;65.11
18790;BME280;9523;42.650;23.386;2022-07-15T06:42:15;94690.28;;;19.84;63.24
18790;BME280;9523;42.650;23.386;2022-07-15T06:44:43;94684.16;;;19.99;62.60
18790;BME280;9523;42.650;23.386;2022-07-15T06:47:11;94676.41;;;20.10;62.56
18790;BME280;9523;42.650;23.386;2022-07-15T06:49:39;94676.19;;;20.03;62.54
18790;BME280;9523;42.650;23.386;2022-07-15T06:52:06;94677.34;;;20.17;62.57
18790;BME280;9523;42.650;23.386;2022-07-15T06:54:33;94673.97;;;20.21;63.17
18790;BME280;9523;42.650;23.386;2022-07-15T06:56:59;94679.75;;;20.38;62.54
18790;BME280;9523;42.650;23.386;2022-07-15T06:59:27;94685.13;;;20.54;62.90
18790;BME280;9523;42.650;23.386;2022-07-15T07:01:55;94678.69;;;20.58;61.71
18790;BME280;9523;42.650;23.386;2022-07-15T07:04:24;94672.22;;;20.59;61.76
18790;BME280;9523;42.650;23.386;2022-07-15T07:06:51;94673.50;;;20.66;61.78
18790;BME280;9523;42.650;23.386;2022-07-15T07:09:18;94670.34;;;20.79;60.54
18790;BME280;9523;42.650;23.386;2022-07-15T07:11:45;94685.28;;;20.96;61.00
18790;BME280;9523;42.650;23.386;2022-07-15T07:14:12;94675.19;;;21.08;59.17
18790;BME280;9523;42.650;23.386;2022-07-15T07:16:39;94678.75;;;21.13;59.21
18790;BME280;9523;42.650;23.386;2022-07-15T07:19:06;94679.69;;;21.20;59.00
18790;BME280;9523;42.650;23.386;2022-07-15T07:21:34;94679.75;;;21.24;58.54
18790;BME280;9523;42.650;23.386;2022-07-15T07:24:01;94669.00;;;21.24;56.79
18790;BME280;9523;42.650;23.386;2022-07-15T07:26:28;94670.56;;;21.25;56.82
18790;BME280;9523;42.650;23.386;2022-07-15T07:28:55;94675.22;;;21.28;56.56
18790;BME280;9523;42.650;23.386;2022-07-15T07:31:25;94673.66;;;21.27;58.03
18790;BME280;9523;42.650;23.386;2022-07-15T07:33:53;94658.22;;;21.20;55.94
18790;BME280;9523;42.650;23.386;2022-07-15T07:36:20;94673.44;;;21.54;54.47
18790;BME280;9523;42.650;23.386;2022-07-15T07:38:49;94674.50;;;21.69;54.90
18790;BME280;9523;42.650;23.386;2022-07-15T07:41:16;94658.78;;;21.71;56.36
18790;BME280;9523;42.650;23.386;2022-07-15T07:43:46;94667.13;;;21.85;54.46
18790;BME280;9523;42.650;23.386;2022-07-15T07:46:14;94662.69;;;21.93;55.50
18790;BME280;9523;42.650;23.386;2022-07-15T07:48:42;94666.59;;;21.99;54.91
18790;BME280;9523;42.650;23.386;2022-07-15T07:51:09;94654.28;;;21.98;54.95
18790;BME280;9523;42.650;23.386;2022-07-15T07:53:36;94672.78;;;22.26;52.64
18790;BME280;9523;42.650;23.386;2022-07-15T07:56:04;94666.00;;;22.32;53.50
18790;BME280;9523;42.650;23.386;2022-07-15T07:58:32;94666.19;;;22.46;51.47
18790;BME280;9523;42.650;23.386;2022-07-15T08:00:59;94666.38;;;22.57;51.81
18790;BME280;9523;42.650;23.386;2022-07-15T08:03:26;94662.78;;;22.72;50.43
18790;BME280;9523;42.650;23.386;2022-07-15T08:05:53;94668.31;;;22.82;51.18
18790;BME280;9523;42.650;23.386;2022-07-15T08:08:21;94656.09;;;22.88;49.50
18790;BME280;9523;42.650;23.386;2022-07-15T08:10:50;94664.44;;;23.10;48.92
18790;BME280;9523;42.650;23.386;2022-07-15T08:13:20;94661.47;;;23.18;48.83
18790;BME280;9523;42.650;23.386;2022-07-15T08:15:48;94665.47;;;23.31;47.73
18790;BME280;9523;42.650;23.386;2022-07-15T08:18:15;94657.91;;;23.40;46.08
18790;BME280;9523;42.650;23.386;2022-07-15T08:20:42;94663.44;;;23.51;46.28
18790;BME280;9523;42.650;23.386;2022-07-15T08:23:12;94664.63;;;23.57;45.28
18790;BME280;9523;42.650;23.386;2022-07-15T08:25:48;94658.22;;;23.69;44.10
18790;BME280;9523;42.650;23.386;2022-07-15T08:28:15;94656.03;;;23.81;43.64
18790;BME280;9523;42.650;23.386;2022-07-15T08:30:46;94663.09;;;23.97;43.47
18790;BME280;9523;42.650;23.386;2022-07-15T08:33:13;94652.38;;;24.00;45.37
18790;BME280;9523;42.650;23.386;2022-07-15T08:35:40;94657.03;;;24.03;44.50
18790;BME280;9523;42.650;23.386;2022-07-15T08:38:08;94657.97;;;24.21;45.14
18790;BME280;9523;42.650;23.386;2022-07-15T08:40:36;94658.94;;;24.43;45.28
18790;BME280;9523;42.650;23.386;2022-07-15T08:43:06;94645.56;;;24.64;45.22
18790;BME280;9523;42.650;23.386;2022-07-15T08:45:35;94653.41;;;24.80;44.51
18790;BME280;9523;42.650;23.386;2022-07-15T08:48:05;94642.34;;;24.99;44.87
18790;BME280;9523;42.650;23.386;2022-07-15T08:50:33;94647.81;;;25.17;42.77
18790;BME280;9523;42.650;23.386;2022-07-15T08:53:00;94641.31;;;25.32;41.73
18790;BME280;9523;42.650;23.386;2022-07-15T08:55:27;94644.88;;;25.50;42.49
18790;BME280;9523;42.650;23.386;2022-07-15T08:57:56;94631.38;;;25.50;42.38
18790;BME280;9523;42.650;23.386;2022-07-15T09:00:24;94595.88;;;25.52;42.33
18790;BME280;9523;42.650;23.386;2022-07-15T09:02:55;94644.25;;;25.99;40.89
18790;BME280;9523;42.650;23.386;2022-07-15T09:05:26;94645.41;;;26.05;40.25
18790;BME280;9523;42.650;23.386;2022-07-15T09:07:59;94635.78;;;26.22;41.10
18790;BME280;9523;42.650;23.386;2022-07-15T09:10:42;94645.03;;;26.46;40.15
18790;BME280;9523;42.650;23.386;2022-07-15T09:13:10;94633.03;;;26.61;38.13
18790;BME280;9523;42.650;23.386;2022-07-15T09:15:39;94636.91;;;26.63;37.42
18790;BME280;9523;42.650;23.386;2022-07-15T09:18:09;94632.63;;;26.98;39.39
18790;BME280;9523;42.650;23.386;2022-07-15T09:20:38;94634.88;;;27.17;39.16
18790;BME280;9523;42.650;23.386;2022-07-15T09:23:06;94632.91;;;27.21;37.59
18790;BME280;9523;42.650;23.386;2022-07-15T09:25:34;94625.16;;;27.23;37.25
18790;BME280;9523;42.650;23.386;2022-07-15T09:28:02;94607.28;;;27.43;37.22
18790;BME280;9523;42.650;23.386;2022-07-15T09:30:31;94617.56;;;27.80;37.76
18790;BME280;9523;42.650;23.386;2022-07-15T09:33:16;94619.81;;;28.44;38.52
18790;BME280;9523;42.650;23.386;2022-07-15T09:36:11;94621.72;;;29.29;35.68
18790;BME280;9523;42.650;23.386;2022-07-15T09:38:47;94615.66;;;29.75;33.47
18790;BME280;9523;42.650;23.386;2022-07-15T09:41:30;94620.78;;;31.16;29.74
18790;BME280;9523;42.650;23.386;2022-07-15T09:44:01;94616.16;;;32.08;30.89
18790;BME280;9523;42.650;23.386;2022-07-15T09:46:40;94614.75;;;33.26;28.70
18790;BME280;9523;42.650;23.386;2022-07-15T09:49:08;94617.06;;;33.81;28.74
18790;BME280;9523;42.650;23.386;2022-07-15T09:51:45;94619.06;;;35.13;26.50
18790;BME280;9523;42.650;23.386;2022-07-15T09:54:13;94615.16;;;34.79;24.71
18790;BME280;9523;42.650;23.386;2022-07-15T09:56:40;94613.78;;;35.84;24.41
18790;BME280;9523;42.650;23.386;2022-07-15T09:59:08;94595.00;;;36.71;23.90
18790;BME280;9523;42.650;23.386;2022-07-15T10:01:35;94607.00;;;37.92;23.52
18790;BME280;9523;42.650;23.386;2022-07-15T10:04:03;94605.28;;;38.13;20.52
18790;BME280;9523;42.650;23.386;2022-07-15T10:06:32;94604.13;;;38.28;19.95
18790;BME280;9523;42.650;23.386;2022-07-15T10:09:03;94601.59;;;37.55;20.26
18790;BME280;9523;42.650;23.386;2022-07-15T10:11:31;94604.59;;;37.85;21.14
18790;BME280;9523;42.650;23.386;2022-07-15T10:17:17;94605.22;;;38.54;21.17
18790;BME280;9523;42.650;23.386;2022-07-15T10:20:27;94601.78;;;38.69;19.62
18790;BME280;9523;42.650;23.386;2022-07-15T10:23:07;94601.00;;;38.92;20.16
18790;BME280;9523;42.650;23.386;2022-07-15T10:25:53;94593.09;;;39.23;20.36
18790;BME280;9523;42.650;23.386;2022-07-15T10:28:30;94604.09;;;39.91;21.03
18790;BME280;9523;42.650;23.386;2022-07-15T10:31:16;94601.06;;;39.74;19.31
18790;BME280;9523;42.650;23.386;2022-07-15T10:34:18;94595.16;;;39.81;19.02
18790;BME280;9523;42.650;23.386;2022-07-15T10:36:56;94586.56;;;39.94;19.59
18790;BME280;9523;42.650;23.386;2022-07-15T10:39:24;94587.91;;;39.55;19.82
18790;BME280;9523;42.650;23.386;2022-07-15T10:41:55;94578.13;;;40.32;19.23
18790;BME280;9523;42.650;23.386;2022-07-15T10:44:23;94592.28;;;40.05;19.41
18790;BME280;9523;42.650;23.386;2022-07-15T10:49:53;94562.75;;;38.04;19.48
18790;BME280;9523;42.650;23.386;2022-07-15T10:52:22;94575.31;;;37.27;19.83
18790;BME280;9523;42.650;23.386;2022-07-15T10:54:50;94568.75;;;37.15;19.99
18790;BME280;9523;42.650;23.386;2022-07-15T10:57:19;94563.09;;;37.37;19.72
18790;BME280;9523;42.650;23.386;2022-07-15T10:59:49;94565.50;;;36.44;21.30
18790;BME280;9523;42.650;23.386;2022-07-15T11:02:18;94561.81;;;37.66;21.61
18790;BME280;9523;42.650;23.386;2022-07-15T11:04:46;94564.75;;;37.53;19.85
18790;BME280;9523;42.650;23.386;2022-07-15T11:07:29;94564.88;;;36.40;20.95
18790;BME280;9523;42.650;23.386;2022-07-15T11:10:16;94566.16;;;35.03;21.77
18790;BME280;9523;42.650;23.386;2022-07-15T11:13:05;94561.22;;;34.76;22.00
18790;BME280;9523;42.650;23.386;2022-07-15T11:15:32;94557.19;;;34.68;22.62
18790;BME280;9523;42.650;23.386;2022-07-15T11:18:00;94559.66;;;35.10;20.60
18790;BME280;9523;42.650;23.386;2022-07-15T11:20:30;94547.84;;;35.44;21.52
18790;BME280;9523;42.650;23.386;2022-07-15T11:22:58;94543.63;;;36.32;20.52
18790;BME280;9523;42.650;23.386;2022-07-15T11:25:28;94537.13;;;37.02;19.81
18790;BME280;9523;42.650;23.386;2022-07-15T11:28:00;94543.94;;;37.43;18.43
18790;BME280;9523;42.650;23.386;2022-07-15T11:30:31;94549.13;;;38.10;19.26
18790;BME280;9523;42.650;23.386;2022-07-15T11:33:04;94530.22;;;37.85;17.35
18790;BME280;9523;42.650;23.386;2022-07-15T11:35:42;94542.28;;;37.96;18.43
18790;BME280;9523;42.650;23.386;2022-07-15T11:38:09;94540.22;;;37.73;18.81
18790;BME280;9523;42.650;23.386;2022-07-15T11:40:43;94548.94;;;38.14;19.52
18790;BME280;9523;42.650;23.386;2022-07-15T11:43:28;94530.28;;;37.67;19.57
18790;BME280;9523;42.650;23.386;2022-07-15T11:46:13;94531.41;;;37.51;19.09
18790;BME280;9523;42.650;23.386;2022-07-15T11:48:41;94524.78;;;37.67;18.92
18790;BME280;9523;42.650;23.386;2022-07-15T11:51:09;94523.94;;;37.51;17.99
18790;BME280;9523;42.650;23.386;2022-07-15T11:53:38;94516.28;;;37.55;19.81
18790;BME280;9523;42.650;23.386;2022-07-15T11:56:06;94530.50;;;37.45;21.19
18790;BME280;9523;42.650;23.386;2022-07-15T11:58:37;94522.66;;;37.10;22.07
18790;BME280;9523;42.650;23.386;2022-07-15T12:01:06;94519.72;;;36.50;22.23
18790;BME280;9523;42.650;23.386;2022-07-15T12:03:35;94514.63;;;36.21;22.90
18790;BME280;9523;42.650;23.386;2022-07-15T12:06:05;94513.91;;;35.50;22.41
18790;BME280;9523;42.650;23.386;2022-07-15T12:08:40;94512.06;;;35.04;23.69
18790;BME280;9523;42.650;23.386;2022-07-15T12:11:14;94517.19;;;34.58;22.22
18790;BME280;9523;42.650;23.386;2022-07-15T12:13:44;94521.81;;;34.02;22.09
18790;BME280;9523;42.650;23.386;2022-07-15T12:16:12;94512.53;;;33.99;25.28
18790;BME280;9523;42.650;23.386;2022-07-15T12:18:40;94513.63;;;33.89;25.08
18790;BME280;9523;42.650;23.386;2022-07-15T12:21:08;94504.94;;;33.52;23.53
18790;BME280;9523;42.650;23.386;2022-07-15T12:23:36;94513.63;;;33.64;25.34
18790;BME280;9523;42.650;23.386;2022-07-15T12:26:07;94521.47;;;33.49;26.02
18790;BME280;9523;42.650;23.386;2022-07-15T12:28:37;94506.91;;;32.85;24.81
18790;BME280;9523;42.650;23.386;2022-07-15T12:31:08;94500.25;;;32.86;26.30
18790;BME280;9523;42.650;23.386;2022-07-15T12:33:35;94500.84;;;33.06;25.71
18790;BME280;9523;42.650;23.386;2022-07-15T12:36:14;94505.63;;;33.02;24.84
18790;BME280;9523;42.650;23.386;2022-07-15T12:38:41;94505.13;;;33.08;23.59
18790;BME280;9523;42.650;23.386;2022-07-15T12:41:22;94499.66;;;32.50;24.73
18790;BME280;9523;42.650;23.386;2022-07-15T12:43:51;94503.22;;;32.63;26.23
18790;BME280;9523;42.650;23.386;2022-07-15T12:46:20;94500.81;;;32.94;26.02
18790;BME280;9523;42.650;23.386;2022-07-15T12:48:48;94499.66;;;33.08;26.81
18790;BME280;9523;42.650;23.386;2022-07-15T12:51:15;94496.63;;;33.18;27.72
18790;BME280;9523;42.650;23.386;2022-07-15T12:53:43;94495.44;;;33.32;26.95
18790;BME280;9523;42.650;23.386;2022-07-15T12:56:11;94491.94;;;33.44;25.81
18790;BME280;9523;42.650;23.386;2022-07-15T12:58:38;94497.41;;;33.57;25.49
18790;BME280;9523;42.650;23.386;2022-07-15T13:01:07;94501.72;;;33.70;26.13
18790;BME280;9523;42.650;23.386;2022-07-15T13:03:36;94497.66;;;33.75;27.11
18790;BME280;9523;42.650;23.386;2022-07-15T13:06:03;94499.84;;;33.80;26.73
18790;BME280;9523;42.650;23.386;2022-07-15T13:08:31;94501.06;;;33.79;26.16
18790;BME280;9523;42.650;23.386;2022-07-15T13:11:01;94497.97;;;33.89;25.41
18790;BME280;9523;42.650;23.386;2022-07-15T13:13:30;94492.50;;;33.77;24.98
18790;BME280;9523;42.650;23.386;2022-07-15T13:15:57;94493.34;;;33.61;25.40